Time;durP1;ratioP1;P1;durP2;ratioP2;P2;SDS_P1;SDS_P2;PMS_P1;PMS_P2;Temp;Humidity;BMP_temperature;BMP_pressure;BME280_temperature;BME280_humidity;BME280_pressure;Samples;Min_cycle;Max_cycle;Signal;HPM_P1;HPM_P2
2023/11/02 00:02:26;;;;;;;3.60;1.58;;;;;;;12.94;65.84;97634.19;4974430;28;20051;-76
2023/11/02 00:04:56;;;;;;;2.10;0.90;;;;;;;12.95;65.83;97625.28;4974807;28;20059;-76
2023/11/02 00:07:23;;;;;;;3.03;0.70;;;;;;;12.98;65.38;97620.50;4973174;28;20487;-76
2023/11/02 00:09:58;;;;;;;2.13;0.95;;;;;;;12.98;65.60;97611.78;4974121;28;20050;-76
2023/11/02 00:12:29;;;;;;;2.60;0.98;;;;;;;12.98;65.50;97606.50;4973010;28;20502;-76
2023/11/02 00:14:59;;;;;;;4.32;0.90;;;;;;;12.99;65.33;97597.59;4974185;28;20086;-77
2023/11/02 00:17:28;;;;;;;4.07;0.85;;;;;;;12.99;65.25;97598.44;4974461;28;20138;-76
2023/11/02 00:19:55;;;;;;;2.15;0.63;;;;;;;12.99;65.08;97595.78;4974147;28;20494;-76
2023/11/02 00:22:23;;;;;;;4.00;0.98;;;;;;;12.99;65.28;97597.59;4974320;28;20098;-78
2023/11/02 00:24:51;;;;;;;5.13;1.08;;;;;;;12.97;65.17;97591.66;4974255;28;20098;-76
2023/11/02 00:27:18;;;;;;;2.22;0.75;;;;;;;12.94;65.43;97587.50;4972804;28;20482;-77
2023/11/02 00:29:44;;;;;;;2.10;0.57;;;;;;;12.94;65.22;97590.16;4973172;28;20057;-78
2023/11/02 00:32:11;;;;;;;2.22;0.98;;;;;;;12.93;65.36;97585.84;4974186;28;20070;-76
2023/11/02 00:34:39;;;;;;;4.05;0.73;;;;;;;12.93;65.39;97579.75;4972662;28;20054;-77
2023/11/02 00:37:06;;;;;;;4.13;0.93;;;;;;;12.93;65.12;97569.19;4973950;28;20054;-76
2023/11/02 00:39:33;;;;;;;2.35;0.75;;;;;;;12.92;65.29;97572.78;4973800;28;20467;-77
2023/11/02 00:42:00;;;;;;;6.28;0.93;;;;;;;12.92;65.30;97578.06;4973696;28;20070;-77
2023/11/02 00:44:27;;;;;;;1.92;0.80;;;;;;;12.88;65.21;97585.47;4972637;28;20736;-78
2023/11/02 00:46:55;;;;;;;3.45;0.60;;;;;;;12.87;64.96;97576.72;4972436;28;20783;-76
2023/11/02 00:49:35;;;;;;;1.90;0.65;;;;;;;12.82;65.09;97560.53;4972324;28;20055;-76
2023/11/02 00:52:04;;;;;;;2.50;1.00;;;;;;;12.83;64.96;97559.56;4973795;28;20058;-76
2023/11/02 00:54:42;;;;;;;2.28;0.75;;;;;;;12.79;64.90;97558.22;4973472;28;20054;-77
2023/11/02 00:57:13;;;;;;;2.08;0.70;;;;;;;12.78;65.05;97561.81;4973700;28;20094;-77
2023/11/02 00:59:41;;;;;;;2.72;0.93;;;;;;;12.77;65.04;97561.00;4973604;28;20061;-76
2023/11/02 01:02:07;;;;;;;2.53;0.70;;;;;;;12.75;65.16;97551.59;4973654;28;20111;-76
2023/11/02 01:04:43;;;;;;;2.47;0.65;;;;;;;12.70;65.25;97535.38;4972235;28;20496;-77
2023/11/02 01:07:11;;;;;;;3.20;0.82;;;;;;;12.70;65.23;97524.81;4973567;28;20066;-77
2023/11/02 01:09:47;;;;;;;3.00;0.93;;;;;;;12.68;65.26;97519.72;4973302;28;20051;-76
2023/11/02 01:12:32;;;;;;;2.08;0.77;;;;;;;12.66;65.25;97515.56;4973290;28;20057;-78
2023/11/02 01:15:00;;;;;;;1.67;0.70;;;;;;;12.65;65.07;97506.81;4971956;28;20043;-76
2023/11/02 01:17:34;;;;;;;3.63;0.93;;;;;;;12.64;65.28;97507.81;4973070;28;20053;-78
2023/11/02 01:20:10;;;;;;;0.75;0.45;;;;;;;12.59;65.49;97495.06;4973233;28;20058;-77
2023/11/02 01:22:50;;;;;;;2.42;0.65;;;;;;;12.59;65.31;97495.06;4973192;28;20050;-77
2023/11/02 01:25:17;;;;;;;5.75;0.80;;;;;;;12.58;65.04;97495.22;4973155;28;20058;-77
2023/11/02 01:27:46;;;;;;;2.35;1.00;;;;;;;12.55;65.36;97493.72;4971645;28;20101;-77
2023/11/02 01:30:17;;;;;;;4.13;0.70;;;;;;;12.55;65.56;97493.72;4972697;28;20499;-76
2023/11/02 01:32:47;;;;;;;4.65;0.80;;;;;;;12.54;65.58;97493.88;4973218;28;20528;-76
2023/11/02 01:35:35;;;;;;;2.13;0.60;;;;;;;12.48;65.80;97484.78;4971932;28;20419;-76
2023/11/02 01:38:02;;;;;;;2.75;0.60;;;;;;;12.50;65.48;97480.19;4971401;28;20491;-76
2023/11/02 01:40:36;;;;;;;3.67;0.73;;;;;;;12.47;65.98;97472.56;4972977;28;20042;-76
2023/11/02 01:43:08;;;;;;;1.50;0.60;;;;;;;12.48;65.72;97461.03;4972948;28;20061;-78
2023/11/02 01:45:41;;;;;;;3.83;0.90;;;;;;;12.48;66.03;97450.47;4972881;28;20051;-76
2023/11/02 01:48:22;;;;;;;;;;;;;;;12.48;65.94;97453.94;4971791;28;20498;-77
2023/11/02 01:50:59;;;;;;;2.30;0.80;;;;;;;12.49;65.64;97439.78;4972306;28;20361;-78
2023/11/02 01:53:34;;;;;;;2.65;0.90;;;;;;;12.50;65.47;97443.25;4972829;28;20055;-77
2023/11/02 01:56:04;;;;;;;2.85;1.00;;;;;;;12.48;65.66;97445.19;4971282;28;20065;-76
2023/11/02 01:58:49;;;;;;;4.32;0.88;;;;;;;12.42;66.03;97432.66;4971206;28;20093;-77
2023/11/02 02:01:26;;;;;;;2.75;0.68;;;;;;;12.45;65.80;97425.22;4970892;28;20054;-77
2023/11/02 02:04:00;;;;;;;2.70;0.80;;;;;;;12.43;65.95;97410.53;4971207;28;20503;-76
2023/11/02 02:06:40;;;;;;;1.85;0.65;;;;;;;12.41;66.04;97413.34;4971250;28;20813;-77
2023/11/02 02:09:10;;;;;;;1.83;0.80;;;;;;;12.44;65.94;97413.03;4972635;28;20119;-76
2023/11/02 02:11:49;;;;;;;1.88;0.88;;;;;;;12.39;66.09;97402.13;4972466;28;20051;-77
2023/11/02 02:14:32;;;;;;;3.88;0.73;;;;;;;12.44;66.10;97384.00;4972448;28;20105;-76
2023/11/02 02:17:18;;;;;;;2.73;0.80;;;;;;;12.41;66.01;97376.41;4971005;28;20055;-76
2023/11/02 02:20:00;;;;;;;3.13;0.70;;;;;;;12.45;65.83;97379.56;4972033;28;20292;-79
2023/11/02 02:22:37;;;;;;;3.08;0.68;;;;;;;12.43;65.83;97368.34;4972160;28;20054;-76
2023/11/02 02:25:31;;;;;;;4.28;1.05;;;;;;;12.42;66.18;97369.31;4971186;28;20086;-76
2023/11/02 02:28:28;;;;;;;4.57;0.70;;;;;;;12.42;65.92;97356.13;4971994;28;20042;-77
2023/11/02 02:31:02;;;;;;;1.95;0.80;;;;;;;12.43;65.82;97345.44;4971848;28;20793;-76
2023/11/02 02:33:52;;;;;;;1.70;0.60;;;;;;;12.46;65.85;97339.00;4971931;28;20496;-76
2023/11/02 02:36:44;;;;;;;2.50;0.50;;;;;;;12.46;65.78;97325.81;4971937;28;20097;-76
2023/11/02 02:39:17;;;;;;;3.22;0.90;;;;;;;12.46;65.58;97313.47;4961610;28;20054;-77
2023/11/02 02:41:52;;;;;;;1.42;0.70;;;;;;;12.46;65.81;97305.53;4972120;28;20086;-76
2023/11/02 02:44:21;;;;;;;2.08;0.90;;;;;;;12.46;65.75;97294.16;4972043;28;20110;-76
2023/11/02 02:46:50;;;;;;;1.00;0.55;;;;;;;12.47;66.00;97277.31;4970531;28;20130;-77
2023/11/02 02:49:17;;;;;;;2.85;0.80;;;;;;;12.47;65.78;97274.69;4970342;28;20475;-76
2023/11/02 02:51:47;;;;;;;3.70;1.30;;;;;;;12.46;65.82;97267.75;4971909;28;20043;-76
2023/11/02 02:54:16;;;;;;;1.85;0.70;;;;;;;12.47;65.86;97250.94;4973118;28;20082;-76
2023/11/02 02:56:48;;;;;;;2.65;0.70;;;;;;;12.47;66.01;97248.31;4974449;28;20540;-77
2023/11/02 02:59:20;;;;;;;2.07;0.73;;;;;;;12.48;65.85;97221.75;4975824;28;20058;-76
2023/11/02 03:01:48;;;;;;;2.50;0.77;;;;;;;12.50;65.94;97201.31;4975890;28;20074;-76
2023/11/02 03:04:17;;;;;;;1.50;0.77;;;;;;;12.49;65.70;97185.66;4974716;28;20047;-76
2023/11/02 03:06:57;;;;;;;2.28;0.75;;;;;;;12.48;65.66;97192.75;4975501;28;20054;-76
2023/11/02 03:09:29;;;;;;;2.65;1.17;;;;;;;12.51;65.75;97179.22;4975474;28;20054;-77
2023/11/02 03:12:01;;;;;;;1.35;0.63;;;;;;;12.51;65.72;97160.75;4975598;28;20112;-76
2023/11/02 03:14:29;;;;;;;3.57;0.87;;;;;;;12.55;65.54;97160.41;4974482;28;20515;-78
2023/11/02 03:17:05;;;;;;;3.53;1.08;;;;;;;12.52;65.65;97153.66;4975374;28;20090;-76
2023/11/02 03:19:48;;;;;;;2.78;0.88;;;;;;;12.55;65.62;97152.50;4973959;28;20547;-79
2023/11/02 03:22:21;;;;;;;2.85;0.93;;;;;;;12.56;65.42;97140.97;4975237;28;20051;-77
2023/11/02 03:24:50;;;;;;;2.40;0.90;;;;;;;12.59;65.60;97130.91;4974244;28;20489;-77
2023/11/02 03:27:36;;;;;;;3.50;0.80;;;;;;;12.57;65.42;97122.34;4974046;28;20423;-79
2023/11/02 03:30:09;;;;;;;8.60;0.73;;;;;;;12.59;65.46;97125.63;4975092;28;20086;-77
2023/11/02 03:32:58;;;;;;;1.52;0.70;;;;;;;12.58;65.45;97145.09;4973896;28;20082;-79
2023/11/02 03:35:29;;;;;;;2.15;0.70;;;;;;;12.60;65.28;97147.56;4975230;28;20043;-77
2023/11/02 03:38:17;;;;;;;2.30;0.95;;;;;;;12.55;65.14;97129.56;4973865;28;20057;-76
2023/11/02 03:41:11;;;;;;;3.20;0.82;;;;;;;12.58;65.21;97133.69;4974689;28;20555;-78
2023/11/02 03:43:50;;;;;;;5.10;1.10;;;;;;;12.57;65.31;97111.78;4974950;28;20499;-78
2023/11/02 03:46:53;;;;;;;1.40;0.65;;;;;;;12.55;65.20;97092.63;4975139;28;20054;-76
2023/11/02 03:49:27;;;;;;;1.45;0.88;;;;;;;12.58;65.10;97089.66;4974833;28;20113;-75
2023/11/02 03:52:01;;;;;;;3.60;0.77;;;;;;;12.56;65.17;97077.63;4974741;28;20138;-77
2023/11/02 03:54:40;;;;;;;2.40;0.50;;;;;;;12.59;65.26;97075.47;4974977;28;20476;-76
2023/11/02 03:57:16;;;;;;;1.45;0.70;;;;;;;12.59;65.24;97069.38;4974806;28;20047;-77
2023/11/02 04:00:20;;;;;;;3.00;0.60;;;;;;;12.57;65.19;97058.16;4974573;28;20142;-76
2023/11/02 04:02:57;;;;;;;1.65;0.75;;;;;;;12.59;65.16;97035.06;4974780;28;20054;-77
2023/11/02 04:05:28;;;;;;;2.75;0.70;;;;;;;12.60;65.08;97021.72;4972016;28;20509;-76
2023/11/02 04:08:12;;;;;;;2.88;0.70;;;;;;;12.59;65.06;97009.50;4974550;28;20699;-77
2023/11/02 04:11:11;;;;;;;2.17;0.77;;;;;;;12.59;64.90;96991.03;4974517;28;20118;-76
2023/11/02 04:14:07;;;;;;;2.30;0.68;;;;;;;12.60;65.12;96979.47;4974375;28;20160;-76
2023/11/02 04:16:33;;;;;;;2.70;1.02;;;;;;;12.67;65.06;96958.50;4974226;28;20086;-76
2023/11/02 04:19:02;;;;;;;3.65;0.93;;;;;;;12.67;65.21;96958.50;4974504;28;20093;-77
2023/11/02 04:21:28;;;;;;;2.42;0.90;;;;;;;12.68;65.06;96949.63;4974215;28;20043;-78
2023/11/02 04:23:55;;;;;;;3.30;1.00;;;;;;;12.68;65.06;96941.72;4974428;28;20047;-76
2023/11/02 04:26:23;;;;;;;3.30;0.77;;;;;;;12.70;65.30;96920.41;4974225;28;20055;-78
2023/11/02 04:28:50;;;;;;;2.58;0.88;;;;;;;12.70;65.06;96905.41;4972906;28;20121;-77
2023/11/02 04:31:16;;;;;;;2.08;0.50;;;;;;;12.72;65.18;96886.75;4973897;28;20082;-76
2023/11/02 04:33:43;;;;;;;3.67;0.75;;;;;;;12.73;65.10;96886.59;4972931;28;20061;-77
2023/11/02 04:36:10;;;;;;;6.07;1.05;;;;;;;12.75;65.03;96878.50;4973970;28;20061;-76
2023/11/02 04:38:36;;;;;;;1.40;0.70;;;;;;;12.77;65.15;96863.31;4972923;28;20086;-77
2023/11/02 04:41:03;;;;;;;1.40;0.70;;;;;;;12.80;65.07;96856.84;4973927;28;20126;-76
2023/11/02 04:43:30;;;;;;;4.18;0.90;;;;;;;12.82;65.03;96858.31;4973904;28;20419;-78
2023/11/02 04:45:57;;;;;;;1.85;0.90;;;;;;;12.85;64.97;96855.34;4960594;28;20086;-77
2023/11/02 04:48:23;;;;;;;3.17;0.65;;;;;;;12.87;65.03;96855.97;4954791;28;20109;-77
2023/11/02 04:50:54;;;;;;;2.65;0.80;;;;;;;12.89;64.53;96829.41;4954169;28;20047;-76
2023/11/02 04:53:22;;;;;;;2.58;0.90;;;;;;;12.94;64.83;96831.53;4954464;28;20460;-77
2023/11/02 04:55:49;;;;;;;2.90;0.80;;;;;;;12.96;64.62;96826.88;4953318;29;20055;-77
2023/11/02 04:58:15;;;;;;;2.30;0.70;;;;;;;12.99;64.73;96830.00;4954238;28;20051;-76
2023/11/02 05:00:42;;;;;;;1.77;0.70;;;;;;;13.01;64.69;96819.28;4954229;28;20059;-76
2023/11/02 05:03:09;;;;;;;4.07;0.80;;;;;;;13.04;64.56;96818.91;4954206;28;20055;-79
2023/11/02 05:05:36;;;;;;;4.43;0.85;;;;;;;13.06;64.43;96803.72;4954398;28;20047;-76
2023/11/02 05:08:03;;;;;;;4.97;1.00;;;;;;;13.09;64.51;96811.28;4954091;28;20164;-76
2023/11/02 05:10:30;;;;;;;5.70;0.65;;;;;;;13.12;64.54;96792.44;4953853;29;20145;-79
2023/11/02 05:12:56;;;;;;;2.60;0.75;;;;;;;13.14;64.41;96794.91;4954225;28;20122;-76
2023/11/02 05:15:23;;;;;;;2.92;0.82;;;;;;;13.16;64.53;96779.72;4954267;28;20051;-76
2023/11/02 05:17:49;;;;;;;5.50;0.95;;;;;;;13.18;64.31;96779.53;4952566;28;20047;-78
2023/11/02 05:20:16;;;;;;;4.13;0.88;;;;;;;13.20;64.31;96746.66;4953840;28;20043;-76
2023/11/02 05:22:44;;;;;;;3.38;1.05;;;;;;;13.21;64.10;96735.09;4952748;29;20082;-77
2023/11/02 05:25:11;;;;;;;3.80;0.80;;;;;;;13.23;64.51;96704.03;4953843;28;20519;-78
2023/11/02 05:27:37;;;;;;;2.97;0.70;;;;;;;13.24;64.34;96671.34;4953638;28;20059;-76
2023/11/02 05:30:06;;;;;;;1.95;0.82;;;;;;;13.25;64.28;96637.81;4952564;29;20059;-77
2023/11/02 05:32:32;;;;;;;8.65;1.08;;;;;;;13.25;64.12;96577.91;4953569;28;20051;-78
2023/11/02 05:34:59;;;;;;;2.88;0.85;;;;;;;13.24;63.97;96467.16;4953789;28;20570;-77
2023/11/02 05:37:26;;;;;;;1.67;0.80;;;;;;;13.22;63.71;96390.75;4953432;28;20055;-76
2023/11/02 05:39:54;;;;;;;3.17;0.80;;;;;;;13.21;63.90;96463.06;4952293;29;20043;-77
2023/11/02 05:42:20;;;;;;;3.00;0.90;;;;;;;13.19;64.02;96454.50;4953629;28;20054;-77
2023/11/02 05:44:47;;;;;;;3.58;0.80;;;;;;;13.16;63.94;96487.38;4952439;29;20685;-77
2023/11/02 05:47:14;;;;;;;3.97;0.98;;;;;;;13.14;64.18;96581.00;4953471;28;20113;-77
2023/11/02 05:49:41;;;;;;;4.45;1.00;;;;;;;13.14;64.04;96617.97;4952231;29;20491;-76
2023/11/02 05:52:07;;;;;;;3.67;0.63;;;;;;;13.15;64.19;96570.25;4952279;29;20492;-76
2023/11/02 05:54:34;;;;;;;3.13;0.90;;;;;;;13.14;64.14;96536.94;4953177;28;20047;-78
2023/11/02 05:57:00;;;;;;;5.57;1.08;;;;;;;13.16;64.24;96594.84;4952044;29;20507;-77
2023/11/02 05:59:28;;;;;;;2.33;0.70;;;;;;;13.18;64.05;96557.66;4953197;28;20065;-77
2023/11/02 06:01:55;;;;;;;6.57;0.93;;;;;;;13.19;64.23;96546.13;4953230;28;20047;-77
2023/11/02 06:04:21;;;;;;;2.70;0.80;;;;;;;13.21;63.93;96541.47;4953204;28;20178;-76
2023/11/02 06:06:48;;;;;;;6.22;1.20;;;;;;;13.21;63.69;96522.97;4953021;28;20063;-76
2023/11/02 06:09:15;;;;;;;4.00;0.82;;;;;;;13.23;63.79;96521.00;4951532;29;20055;-76
2023/11/02 06:11:41;;;;;;;3.58;1.05;;;;;;;13.24;63.87;96507.56;4952949;28;20500;-77
2023/11/02 06:14:08;;;;;;;4.03;1.25;;;;;;;13.25;63.85;96492.56;4952017;29;20059;-77
2023/11/02 06:16:34;;;;;;;5.70;1.23;;;;;;;13.25;63.54;96480.19;4952954;28;20090;-76
2023/11/02 06:19:01;;;;;;;5.25;0.90;;;;;;;13.29;63.77;96462.13;4953140;28;20134;-76
2023/11/02 06:21:27;;;;;;;3.42;0.93;;;;;;;13.31;63.56;96459.31;4952632;28;20146;-78
2023/11/02 06:23:54;;;;;;;1.90;0.82;;;;;;;13.31;63.43;96425.78;4953013;28;20062;-76
2023/11/02 06:26:21;;;;;;;7.22;0.90;;;;;;;13.33;63.36;96385.97;4952872;28;20102;-76
2023/11/02 06:28:47;;;;;;;3.90;0.95;;;;;;;13.34;63.34;96404.25;4952213;28;20063;-77
2023/11/02 06:31:14;;;;;;;8.90;1.08;;;;;;;13.36;63.39;96407.56;4952694;28;20393;-79
2023/11/02 06:33:41;;;;;;;2.25;0.77;;;;;;;13.36;63.19;96426.03;4952862;28;20102;-77
2023/11/02 06:36:08;;;;;;;5.95;0.95;;;;;;;13.37;63.42;96406.53;4951259;29;20055;-78
2023/11/02 06:38:35;;;;;;;3.03;1.02;;;;;;;13.39;63.28;96416.91;4951515;29;20566;-77
2023/11/02 06:41:01;;;;;;;5.47;1.55;;;;;;;13.39;63.02;96415.06;4952586;28;20162;-76
2023/11/02 06:43:28;;;;;;;1.83;0.73;;;;;;;13.39;63.14;96396.59;4952821;28;20138;-77
2023/11/02 06:45:55;;;;;;;3.63;0.80;;;;;;;13.40;62.90;96390.31;4952771;28;20051;-77
2023/11/02 06:48:22;;;;;;;5.22;0.82;;;;;;;13.42;62.86;96377.72;4952920;28;20059;-76
2023/11/02 06:50:50;;;;;;;2.38;0.90;;;;;;;13.43;62.68;96360.84;4952453;28;20135;-77
2023/11/02 06:53:17;;;;;;;4.55;0.93;;;;;;;13.45;62.67;96347.47;4952807;28;20051;-76
2023/11/02 06:55:43;;;;;;;3.03;0.95;;;;;;;13.46;62.63;96358.88;4952672;28;20556;-76
2023/11/02 06:58:10;;;;;;;2.08;0.80;;;;;;;13.47;62.80;96378.97;4952560;28;20118;-77
2023/11/02 07:00:37;;;;;;;5.78;0.98;;;;;;;13.47;62.63;96393.03;4952595;28;20055;-76
2023/11/02 07:03:04;;;;;;;2.30;0.80;;;;;;;13.49;62.49;96395.50;4952559;28;20054;-76
2023/11/02 07:05:30;;;;;;;2.30;0.90;;;;;;;13.50;62.43;96416.44;4952733;28;20054;-77
2023/11/02 07:07:57;;;;;;;3.40;1.00;;;;;;;13.53;62.43;96431.13;4951424;29;20047;-77
2023/11/02 07:10:24;;;;;;;3.92;1.00;;;;;;;13.53;62.42;96450.41;4952462;28;20134;-76
2023/11/02 07:12:52;;;;;;;2.97;0.80;;;;;;;13.55;62.50;96464.28;4952607;28;20574;-78
2023/11/02 07:15:19;;;;;;;2.22;0.90;;;;;;;13.58;62.52;96476.28;4952450;29;20543;-76
2023/11/02 07:17:46;;;;;;;3.90;0.80;;;;;;;13.61;62.48;96462.66;4952301;28;20377;-77
2023/11/02 07:20:12;;;;;;;1.52;0.73;;;;;;;13.64;62.24;96464.94;4950992;29;20058;-76
2023/11/02 07:22:39;;;;;;;4.25;1.10;;;;;;;13.65;62.48;96442.00;4952508;28;20107;-76
2023/11/02 07:25:07;;;;;;;4.45;1.17;;;;;;;13.67;62.59;96442.59;4951415;29;20106;-77
2023/11/02 07:27:35;;;;;;;4.22;1.30;;;;;;;13.70;62.28;96451.97;4952363;28;20055;-77
2023/11/02 07:30:02;;;;;;;1.63;0.68;;;;;;;13.71;62.09;96448.34;4952319;28;20115;-76
2023/11/02 07:32:29;;;;;;;1.75;0.65;;;;;;;13.72;62.22;96436.75;4952257;28;20142;-76
2023/11/02 07:34:57;;;;;;;2.17;0.80;;;;;;;13.75;62.00;96439.03;4951256;29;20062;-78
2023/11/02 07:37:23;;;;;;;4.22;1.33;;;;;;;13.75;61.98;96446.97;4952383;28;20048;-76
2023/11/02 07:39:50;;;;;;;3.25;1.20;;;;;;;13.76;61.97;96440.66;4953620;28;20574;-77
2023/11/02 07:42:16;;;;;;;0.80;0.60;;;;;;;13.78;62.04;96441.28;4955876;28;20059;-77
2023/11/02 07:44:43;;;;;;;2.40;1.00;;;;;;;13.79;61.75;96429.69;4955812;28;20083;-78
2023/11/02 07:47:10;;;;;;;1.92;0.73;;;;;;;13.81;61.73;96425.03;4955674;28;20510;-76
2023/11/02 07:49:38;;;;;;;2.17;0.95;;;;;;;13.82;61.93;96431.97;4955790;28;20144;-76
2023/11/02 07:52:07;;;;;;;2.53;0.80;;;;;;;13.82;62.07;96424.03;4955805;28;20051;-76
2023/11/02 07:54:37;;;;;;;3.90;0.88;;;;;;;13.81;61.80;96428.50;4955772;28;20059;-77
2023/11/02 07:57:07;;;;;;;2.35;0.70;;;;;;;13.81;62.02;96419.75;4955693;28;20518;-77
2023/11/02 07:59:35;;;;;;;2.50;0.75;;;;;;;13.81;61.91;96406.53;4954124;29;20134;-76
2023/11/02 08:02:03;;;;;;;1.88;0.70;;;;;;;13.80;62.17;96410.19;4955640;28;20062;-76
2023/11/02 08:04:31;;;;;;;1.73;0.80;;;;;;;13.78;61.91;96391.88;4954343;29;20054;-77
2023/11/02 08:06:57;;;;;;;1.58;0.70;;;;;;;13.74;62.51;96385.34;4955533;28;20516;-76
2023/11/02 08:09:24;;;;;;;2.80;0.75;;;;;;;13.73;62.55;96383.72;4955280;28;20066;-77
2023/11/02 08:11:51;;;;;;;1.73;0.60;;;;;;;13.72;62.42;96373.31;4955365;28;20483;-76
2023/11/02 08:14:19;;;;;;;2.30;0.63;;;;;;;13.73;62.58;96364.38;4955534;28;20149;-76
2023/11/02 08:16:46;;;;;;;2.15;0.90;;;;;;;13.73;62.59;96345.88;4955273;28;20176;-77
2023/11/02 08:19:13;;;;;;;0.95;0.52;;;;;;;13.75;62.83;96347.31;4955131;28;20396;-76
2023/11/02 08:21:40;;;;;;;1.02;0.70;;;;;;;13.76;62.68;96338.38;4953971;29;20070;-76
2023/11/02 08:24:07;;;;;;;2.28;0.90;;;;;;;13.79;62.83;96334.53;4955160;28;20055;-77
2023/11/02 08:26:34;;;;;;;1.67;0.85;;;;;;;13.83;62.63;96335.78;4953753;29;20051;-77
2023/11/02 08:29:00;;;;;;;1.88;0.50;;;;;;;13.86;62.90;96332.75;4955265;28;20058;-76
2023/11/02 08:31:28;;;;;;;0.80;0.57;;;;;;;13.90;62.59;96344.56;4954746;28;20047;-77
2023/11/02 08:33:59;;;;;;;1.00;0.60;;;;;;;13.95;62.73;96341.38;4953809;29;20138;-76
2023/11/02 08:36:31;;;;;;;0.70;0.40;;;;;;;13.99;62.77;96326.75;4954959;28;20138;-76
2023/11/02 08:38:58;;;;;;;1.85;0.70;;;;;;;14.03;62.65;96325.34;4953554;29;20492;-76
2023/11/02 08:41:26;;;;;;;1.95;0.50;;;;;;;14.08;62.53;96332.69;4954819;28;20583;-76
2023/11/02 08:43:56;;;;;;;2.15;0.57;;;;;;;14.13;62.45;96327.63;4954891;28;20055;-76
2023/11/02 08:46:23;;;;;;;1.40;0.60;;;;;;;14.18;62.23;96321.75;4953684;29;20047;-76
2023/11/02 08:48:51;;;;;;;1.30;0.70;;;;;;;14.22;62.20;96303.66;4953403;29;20074;-77
2023/11/02 08:51:20;;;;;;;2.15;0.40;;;;;;;14.26;62.28;96308.38;4953641;28;20484;-78
2023/11/02 08:53:47;;;;;;;1.70;0.57;;;;;;;14.31;62.21;96300.66;4953564;29;20051;-77
2023/11/02 08:56:14;;;;;;;6.10;0.57;;;;;;;14.35;62.01;96298.41;4954802;28;20051;-76
2023/11/02 08:58:49;;;;;;;0.98;0.35;;;;;;;14.38;61.88;96284.81;4954468;28;20098;-78
2023/11/02 09:01:22;;;;;;;3.22;0.70;;;;;;;14.42;61.82;96293.97;4954354;28;20063;-76
2023/11/02 09:03:53;;;;;;;2.53;0.57;;;;;;;14.49;62.00;96293.16;4954574;28;20134;-77
2023/11/02 09:06:20;;;;;;;0.80;0.40;;;;;;;14.52;61.81;96300.72;4954233;28;20130;-77
2023/11/02 09:08:50;;;;;;;1.67;0.90;;;;;;;14.53;61.64;96279.34;4954437;29;20472;-77
2023/11/02 09:11:18;;;;;;;1.23;0.57;;;;;;;14.54;61.54;96275.69;4954180;28;20047;-77
2023/11/02 09:13:45;;;;;;;0.30;0.30;;;;;;;14.56;61.80;96273.66;4954218;28;20535;-77
2023/11/02 09:16:11;;;;;;;1.83;0.52;;;;;;;14.57;61.60;96264.72;4954247;28;20420;-77
2023/11/02 09:18:38;;;;;;;1.23;0.50;;;;;;;14.59;61.69;96256.56;4952909;29;20047;-77
2023/11/02 09:21:06;;;;;;;6.20;0.57;;;;;;;14.60;61.53;96260.84;4953926;28;20053;-76
2023/11/02 09:23:34;;;;;;;1.45;0.40;;;;;;;14.63;61.60;96264.91;4962196;28;20089;-77
2023/11/02 09:26:02;;;;;;;1.85;0.60;;;;;;;14.65;61.69;96258.41;4953864;28;20515;-76
2023/11/02 09:28:29;;;;;;;0.50;0.50;;;;;;;14.66;61.64;96244.16;4953867;29;20051;-77
2023/11/02 09:30:55;;;;;;;2.28;0.52;;;;;;;14.69;61.65;96246.41;4953833;29;20464;-76
2023/11/02 09:33:22;;;;;;;1.30;0.50;;;;;;;14.73;61.76;96225.66;4959293;28;20149;-76
2023/11/02 09:35:49;;;;;;;0.95;0.52;;;;;;;14.78;61.62;96225.06;4953591;28;20055;-77
2023/11/02 09:38:15;;;;;;;0.95;0.40;;;;;;;14.82;61.50;96234.25;4951410;29;20051;-77
2023/11/02 09:40:42;;;;;;;2.17;0.50;;;;;;;14.84;61.49;96195.94;4951614;29;20051;-76
2023/11/02 09:43:09;;;;;;;1.25;0.52;;;;;;;14.89;61.52;96215.72;4953486;29;20058;-77
2023/11/02 09:45:36;;;;;;;4.97;0.63;;;;;;;14.92;61.43;96212.66;4953516;29;20106;-77
2023/11/02 09:48:04;;;;;;;2.22;0.50;;;;;;;14.95;61.42;96222.84;4953567;29;20134;-77
2023/11/02 09:50:31;;;;;;;3.60;0.50;;;;;;;14.97;61.51;96226.94;4953493;28;20043;-76
2023/11/02 09:52:58;;;;;;;1.38;0.52;;;;;;;15.01;61.56;96226.50;4953572;29;20086;-76
2023/11/02 09:55:28;;;;;;;0.52;0.52;;;;;;;15.04;61.57;96211.03;4953634;29;20158;-78
2023/11/02 09:57:55;;;;;;;2.10;0.60;;;;;;;15.06;61.36;96218.78;4953323;29;20055;-77
2023/11/02 10:00:21;;;;;;;5.68;0.70;;;;;;;15.10;61.40;96206.72;4953119;29;20134;-76
2023/11/02 10:02:50;;;;;;;0.55;0.50;;;;;;;15.15;61.45;96220.19;4953212;28;20082;-78
2023/11/02 10:05:17;;;;;;;2.75;0.70;;;;;;;15.20;61.33;96203.69;4953256;29;20130;-78
2023/11/02 10:07:49;;;;;;;1.58;0.60;;;;;;;15.23;61.11;96197.97;4952180;29;20087;-76
2023/11/02 10:10:16;;;;;;;1.75;0.50;;;;;;;15.30;61.37;96213.88;4953322;29;20134;-77
2023/11/02 10:12:42;;;;;;;1.70;0.50;;;;;;;15.35;61.06;96196.34;4951994;29;20063;-77
2023/11/02 10:15:11;;;;;;;0.60;0.45;;;;;;;15.40;61.24;96203.66;4952154;29;20117;-78
2023/11/02 10:17:39;;;;;;;1.23;0.60;;;;;;;15.45;60.97;96209.16;4951969;29;20051;-77
2023/11/02 10:20:13;;;;;;;3.35;0.60;;;;;;;15.47;60.60;96200.97;4952985;29;20047;-79
2023/11/02 10:22:42;;;;;;;1.98;0.60;;;;;;;15.52;60.97;96174.69;4953142;29;20496;-76
2023/11/02 10:25:15;;;;;;;1.38;0.57;;;;;;;15.55;60.31;96173.47;4951790;29;20055;-76
2023/11/02 10:27:43;;;;;;;4.18;0.77;;;;;;;15.58;60.75;96168.53;4953142;29;20122;-77
2023/11/02 10:30:11;;;;;;;1.20;0.50;;;;;;;15.60;60.61;96163.03;4952994;29;20078;-77
2023/11/02 10:32:38;;;;;;;3.05;0.55;;;;;;;15.62;60.69;96176.88;4971541;28;20136;-77
2023/11/02 10:35:06;;;;;;;1.13;0.50;;;;;;;15.64;60.52;96177.50;4972232;28;20113;-77
2023/11/02 10:37:36;;;;;;;2.10;0.60;;;;;;;15.65;60.52;96171.19;4972223;28;20050;-77
2023/11/02 10:40:04;;;;;;;0.80;0.45;;;;;;;15.66;60.73;96183.41;4971105;28;20061;-78
2023/11/02 10:42:31;;;;;;;2.80;0.60;;;;;;;15.68;60.49;96194.63;4972267;28;20448;-77
2023/11/02 10:44:58;;;;;;;0.73;0.40;;;;;;;15.67;60.52;96161.19;4968834;28;20543;-77
2023/11/02 10:47:30;;;;;;;3.30;0.50;;;;;;;15.67;60.03;96129.38;4951522;29;20055;-77
2023/11/02 10:49:58;;;;;;;2.00;0.57;;;;;;;15.68;60.41;96124.88;4951257;29;20503;-77
2023/11/02 10:52:51;;;;;;;1.48;0.40;;;;;;;15.62;60.30;96134.47;4952580;28;20074;-76
2023/11/02 10:55:27;;;;;;;1.38;0.60;;;;;;;15.64;60.46;96149.13;4952384;28;20051;-78
2023/11/02 10:57:55;;;;;;;0.73;0.40;;;;;;;15.61;60.26;96143.47;4952655;29;20121;-78
2023/11/02 11:00:24;;;;;;;0.80;0.60;;;;;;;15.58;60.14;96142.03;4951170;29;20060;-76
2023/11/02 11:02:51;;;;;;;1.77;0.57;;;;;;;15.57;60.49;96161.63;4951214;29;20052;-77
2023/11/02 11:05:19;;;;;;;3.35;0.50;;;;;;;15.57;60.46;96135.13;4952578;29;20111;-77
2023/11/02 11:07:46;;;;;;;3.88;0.45;;;;;;;15.57;60.60;96118.38;4952228;29;20047;-77
2023/11/02 11:10:14;;;;;;;3.67;0.85;;;;;;;15.58;60.64;96110.22;4952337;29;20059;-78
2023/11/02 11:12:41;;;;;;;3.67;0.60;;;;;;;15.58;60.54;96077.59;4952434;29;20051;-78
2023/11/02 11:15:10;;;;;;;3.28;0.68;;;;;;;15.59;60.82;96085.34;4954426;28;20086;-77
2023/11/02 11:17:42;;;;;;;3.30;0.70;;;;;;;15.63;60.52;96091.06;4955875;29;20484;-77
2023/11/02 11:20:09;;;;;;;3.33;0.82;;;;;;;15.67;60.73;96083.50;4955823;29;20102;-77
2023/11/02 11:22:40;;;;;;;2.30;0.60;;;;;;;15.71;60.68;96082.03;4955747;29;20572;-78
2023/11/02 11:25:06;;;;;;;1.98;0.57;;;;;;;15.75;60.52;96077.94;4955649;29;20506;-77
2023/11/02 11:27:35;;;;;;;1.85;0.50;;;;;;;15.76;60.44;96091.00;4955502;29;20055;-79
2023/11/02 11:30:04;;;;;;;0.90;0.57;;;;;;;15.79;60.46;96079.16;4955247;29;20499;-77
2023/11/02 11:32:32;;;;;;;1.67;0.70;;;;;;;15.83;60.31;96053.00;4954264;29;20087;-76
2023/11/02 11:35:02;;;;;;;1.98;0.63;;;;;;;15.87;60.00;96043.59;4956176;29;20047;-76
2023/11/02 11:37:45;;;;;;;3.15;0.60;;;;;;;15.88;59.81;96048.69;4956002;29;20157;-76
2023/11/02 11:40:20;;;;;;;0.88;0.68;;;;;;;15.95;60.10;96067.25;4955853;29;20054;-78
2023/11/02 11:43:01;;;;;;;3.30;0.60;;;;;;;16.00;60.07;96037.44;4956100;29;20066;-77
2023/11/02 11:45:31;;;;;;;3.53;0.70;;;;;;;16.07;59.93;96058.63;4956018;29;20138;-77
2023/11/02 11:47:59;;;;;;;5.60;0.70;;;;;;;16.14;59.86;96059.38;4955821;29;20110;-76
2023/11/02 11:50:30;;;;;;;2.38;0.82;;;;;;;16.17;59.23;96047.50;4955773;29;20102;-77